sensor_id;sensor_type;location;lat;lon;timestamp;temperature;humidity
30304;DHT22;17112;48.636;10.152;2023-09-30T00:01:43;18.40;62.00
30304;DHT22;17112;48.636;10.152;2023-09-30T00:04:10;18.40;62.20
30304;DHT22;17112;48.636;10.152;2023-09-30T00:06:36;18.40;62.50
30304;DHT22;17112;48.636;10.152;2023-09-30T00:09:01;18.30;62.70
30304;DHT22;17112;48.636;10.152;2023-09-30T00:11:27;18.30;62.90
30304;DHT22;17112;48.636;10.152;2023-09-30T00:13:53;18.20;62.80
30304;DHT22;17112;48.636;10.152;2023-09-30T00:16:19;18.20;62.90
30304;DHT22;17112;48.636;10.152;2023-09-30T00:18:45;18.20;63.00
30304;DHT22;17112;48.636;10.152;2023-09-30T00:21:11;18.20;63.00
30304;DHT22;17112;48.636;10.152;2023-09-30T00:23:37;18.10;63.10
30304;DHT22;17112;48.636;10.152;2023-09-30T00:26:03;18.10;63.30
30304;DHT22;17112;48.636;10.152;2023-09-30T00:28:29;18.00;63.20
30304;DHT22;17112;48.636;10.152;2023-09-30T00:30:54;18.10;63.30
30304;DHT22;17112;48.636;10.152;2023-09-30T00:33:20;18.00;63.60
30304;DHT22;17112;48.636;10.152;2023-09-30T00:35:46;18.00;63.70
30304;DHT22;17112;48.636;10.152;2023-09-30T00:38:12;17.90;63.70
30304;DHT22;17112;48.636;10.152;2023-09-30T00:40:37;17.90;63.80
30304;DHT22;17112;48.636;10.152;2023-09-30T00:43:03;17.90;64.00
30304;DHT22;17112;48.636;10.152;2023-09-30T00:45:30;17.90;64.10
30304;DHT22;17112;48.636;10.152;2023-09-30T00:47:56;17.80;64.10
30304;DHT22;17112;48.636;10.152;2023-09-30T00:50:22;17.80;64.10
30304;DHT22;17112;48.636;10.152;2023-09-30T00:52:49;17.70;64.10
30304;DHT22;17112;48.636;10.152;2023-09-30T00:55:16;17.80;64.40
30304;DHT22;17112;48.636;10.152;2023-09-30T00:57:42;17.70;64.40
30304;DHT22;17112;48.636;10.152;2023-09-30T01:00:10;17.70;64.50
30304;DHT22;17112;48.636;10.152;2023-09-30T01:02:39;17.70;64.70
30304;DHT22;17112;48.636;10.152;2023-09-30T01:05:06;17.60;64.80
30304;DHT22;17112;48.636;10.152;2023-09-30T01:07:34;17.60;64.80
30304;DHT22;17112;48.636;10.152;2023-09-30T01:09:59;17.60;64.80
30304;DHT22;17112;48.636;10.152;2023-09-30T01:12:25;17.50;64.70
30304;DHT22;17112;48.636;10.152;2023-09-30T01:14:56;17.50;64.70
30304;DHT22;17112;48.636;10.152;2023-09-30T01:17:22;17.50;64.80
30304;DHT22;17112;48.636;10.152;2023-09-30T01:19:48;17.50;65.00
30304;DHT22;17112;48.636;10.152;2023-09-30T01:22:15;17.40;65.20
30304;DHT22;17112;48.636;10.152;2023-09-30T01:24:42;17.40;65.20
30304;DHT22;17112;48.636;10.152;2023-09-30T01:27:09;17.40;65.30
30304;DHT22;17112;48.636;10.152;2023-09-30T01:29:34;17.30;65.30
30304;DHT22;17112;48.636;10.152;2023-09-30T01:32:04;17.30;65.50
30304;DHT22;17112;48.636;10.152;2023-09-30T01:34:30;17.30;65.70
30304;DHT22;17112;48.636;10.152;2023-09-30T01:36:56;17.30;65.90
30304;DHT22;17112;48.636;10.152;2023-09-30T01:39:22;17.20;65.70
30304;DHT22;17112;48.636;10.152;2023-09-30T01:41:48;17.20;65.80
30304;DHT22;17112;48.636;10.152;2023-09-30T01:44:14;17.10;65.70
30304;DHT22;17112;48.636;10.152;2023-09-30T01:46:40;17.10;65.90
30304;DHT22;17112;48.636;10.152;2023-09-30T01:49:06;17.10;66.00
30304;DHT22;17112;48.636;10.152;2023-09-30T01:51:31;17.10;66.20
30304;DHT22;17112;48.636;10.152;2023-09-30T01:53:57;17.00;66.10
30304;DHT22;17112;48.636;10.152;2023-09-30T01:56:23;17.00;66.20
30304;DHT22;17112;48.636;10.152;2023-09-30T01:58:49;17.00;66.40
30304;DHT22;17112;48.636;10.152;2023-09-30T02:01:14;16.90;66.40
30304;DHT22;17112;48.636;10.152;2023-09-30T02:03:40;16.90;66.50
30304;DHT22;17112;48.636;10.152;2023-09-30T02:06:07;16.90;66.80
30304;DHT22;17112;48.636;10.152;2023-09-30T02:08:33;16.80;66.70
30304;DHT22;17112;48.636;10.152;2023-09-30T02:11:02;16.80;66.80
30304;DHT22;17112;48.636;10.152;2023-09-30T02:13:28;16.80;66.90
30304;DHT22;17112;48.636;10.152;2023-09-30T02:15:53;16.80;67.20
30304;DHT22;17112;48.636;10.152;2023-09-30T02:18:21;16.80;66.90
30304;DHT22;17112;48.636;10.152;2023-09-30T02:20:47;16.70;67.00
30304;DHT22;17112;48.636;10.152;2023-09-30T02:23:13;16.70;66.80
30304;DHT22;17112;48.636;10.152;2023-09-30T02:25:41;16.70;67.00
30304;DHT22;17112;48.636;10.152;2023-09-30T02:28:09;16.60;67.10
30304;DHT22;17112;48.636;10.152;2023-09-30T02:30:35;16.60;66.90
30304;DHT22;17112;48.636;10.152;2023-09-30T02:33:02;16.60;67.10
30304;DHT22;17112;48.636;10.152;2023-09-30T02:35:28;16.60;67.20
30304;DHT22;17112;48.636;10.152;2023-09-30T02:37:54;16.60;67.50
30304;DHT22;17112;48.636;10.152;2023-09-30T02:40:20;16.60;67.60
30304;DHT22;17112;48.636;10.152;2023-09-30T02:42:46;16.60;67.70
30304;DHT22;17112;48.636;10.152;2023-09-30T02:45:14;16.60;68.00
30304;DHT22;17112;48.636;10.152;2023-09-30T02:47:39;16.60;68.00
30304;DHT22;17112;48.636;10.152;2023-09-30T02:50:07;16.70;67.90
30304;DHT22;17112;48.636;10.152;2023-09-30T02:52:42;16.70;68.00
30304;DHT22;17112;48.636;10.152;2023-09-30T02:55:11;16.80;67.80
30304;DHT22;17112;48.636;10.152;2023-09-30T02:57:37;16.80;68.20
30304;DHT22;17112;48.636;10.152;2023-09-30T03:00:04;16.80;68.20
30304;DHT22;17112;48.636;10.152;2023-09-30T03:02:39;16.90;68.00
30304;DHT22;17112;48.636;10.152;2023-09-30T03:05:05;16.90;67.90
30304;DHT22;17112;48.636;10.152;2023-09-30T03:07:32;16.90;68.00
30304;DHT22;17112;48.636;10.152;2023-09-30T03:09:58;17.00;68.10
30304;DHT22;17112;48.636;10.152;2023-09-30T03:12:25;17.00;68.10
30304;DHT22;17112;48.636;10.152;2023-09-30T03:14:51;17.00;68.00
30304;DHT22;17112;48.636;10.152;2023-09-30T03:17:17;17.00;67.90
30304;DHT22;17112;48.636;10.152;2023-09-30T03:19:43;17.10;67.90
30304;DHT22;17112;48.636;10.152;2023-09-30T03:22:09;17.10;67.90
30304;DHT22;17112;48.636;10.152;2023-09-30T03:24:40;17.10;67.80
30304;DHT22;17112;48.636;10.152;2023-09-30T03:27:07;17.10;67.90
30304;DHT22;17112;48.636;10.152;2023-09-30T03:29:35;17.10;67.70
30304;DHT22;17112;48.636;10.152;2023-09-30T03:32:00;17.10;67.70
30304;DHT22;17112;48.636;10.152;2023-09-30T03:34:26;17.10;67.70
30304;DHT22;17112;48.636;10.152;2023-09-30T03:36:51;17.20;67.90
30304;DHT22;17112;48.636;10.152;2023-09-30T03:39:20;17.10;67.90
30304;DHT22;17112;48.636;10.152;2023-09-30T03:41:53;17.20;68.00
30304;DHT22;17112;48.636;10.152;2023-09-30T03:44:19;17.10;67.70
30304;DHT22;17112;48.636;10.152;2023-09-30T03:46:45;17.20;68.00
30304;DHT22;17112;48.636;10.152;2023-09-30T03:49:11;17.10;67.90
30304;DHT22;17112;48.636;10.152;2023-09-30T03:51:36;17.10;67.90
30304;DHT22;17112;48.636;10.152;2023-09-30T03:54:02;17.10;67.90
30304;DHT22;17112;48.636;10.152;2023-09-30T03:56:28;17.10;68.10
30304;DHT22;17112;48.636;10.152;2023-09-30T03:58:54;17.10;68.00
30304;DHT22;17112;48.636;10.152;2023-09-30T04:01:19;17.10;68.20
30304;DHT22;17112;48.636;10.152;2023-09-30T04:03:45;17.10;68.30
30304;DHT22;17112;48.636;10.152;2023-09-30T04:06:11;17.00;68.20
30304;DHT22;17112;48.636;10.152;2023-09-30T04:08:37;17.00;68.20
30304;DHT22;17112;48.636;10.152;2023-09-30T04:11:03;17.00;68.30
30304;DHT22;17112;48.636;10.152;2023-09-30T04:13:29;17.00;68.30
30304;DHT22;17112;48.636;10.152;2023-09-30T04:15:55;17.00;68.30
30304;DHT22;17112;48.636;10.152;2023-09-30T04:18:24;17.00;68.20
30304;DHT22;17112;48.636;10.152;2023-09-30T04:20:52;16.90;68.20
30304;DHT22;17112;48.636;10.152;2023-09-30T04:23:18;16.90;68.40
30304;DHT22;17112;48.636;10.152;2023-09-30T04:25:46;16.90;68.30
30304;DHT22;17112;48.636;10.152;2023-09-30T04:28:12;16.90;68.20
30304;DHT22;17112;48.636;10.152;2023-09-30T04:30:39;16.90;68.30
30304;DHT22;17112;48.636;10.152;2023-09-30T04:33:05;16.80;68.20
30304;DHT22;17112;48.636;10.152;2023-09-30T04:35:31;16.80;68.30
30304;DHT22;17112;48.636;10.152;2023-09-30T04:37:57;16.80;68.30
30304;DHT22;17112;48.636;10.152;2023-09-30T04:40:27;16.80;68.20
30304;DHT22;17112;48.636;10.152;2023-09-30T04:42:53;16.70;68.00
30304;DHT22;17112;48.636;10.152;2023-09-30T04:45:24;16.70;68.10
30304;DHT22;17112;48.636;10.152;2023-09-30T04:47:50;16.60;68.20
30304;DHT22;17112;48.636;10.152;2023-09-30T04:50:16;16.60;68.30
30304;DHT22;17112;48.636;10.152;2023-09-30T04:52:43;16.60;68.30
30304;DHT22;17112;48.636;10.152;2023-09-30T04:55:09;16.50;68.30
30304;DHT22;17112;48.636;10.152;2023-09-30T04:57:37;16.50;68.20
30304;DHT22;17112;48.636;10.152;2023-09-30T05:00:04;16.40;68.00
30304;DHT22;17112;48.636;10.152;2023-09-30T05:02:36;16.40;68.10
30304;DHT22;17112;48.636;10.152;2023-09-30T05:05:02;16.30;68.00
30304;DHT22;17112;48.636;10.152;2023-09-30T05:07:31;16.30;68.20
30304;DHT22;17112;48.636;10.152;2023-09-30T05:09:57;16.30;68.40
30304;DHT22;17112;48.636;10.152;2023-09-30T05:12:23;16.20;68.60
30304;DHT22;17112;48.636;10.152;2023-09-30T05:14:49;16.20;68.90
30304;DHT22;17112;48.636;10.152;2023-09-30T05:17:14;16.10;69.80
30304;DHT22;17112;48.636;10.152;2023-09-30T05:19:41;16.10;69.20
30304;DHT22;17112;48.636;10.152;2023-09-30T05:22:06;16.00;69.30
30304;DHT22;17112;48.636;10.152;2023-09-30T05:24:32;16.00;69.30
30304;DHT22;17112;48.636;10.152;2023-09-30T05:26:58;16.00;69.50
30304;DHT22;17112;48.636;10.152;2023-09-30T05:29:24;15.90;69.60
30304;DHT22;17112;48.636;10.152;2023-09-30T05:31:49;15.90;69.70
30304;DHT22;17112;48.636;10.152;2023-09-30T05:34:15;15.80;69.70
30304;DHT22;17112;48.636;10.152;2023-09-30T05:36:40;15.80;69.90
30304;DHT22;17112;48.636;10.152;2023-09-30T05:39:08;15.80;70.10
30304;DHT22;17112;48.636;10.152;2023-09-30T05:41:36;15.70;69.90
30304;DHT22;17112;48.636;10.152;2023-09-30T05:44:03;15.70;70.30
30304;DHT22;17112;48.636;10.152;2023-09-30T05:46:30;15.70;70.20
30304;DHT22;17112;48.636;10.152;2023-09-30T05:48:56;15.70;70.50
30304;DHT22;17112;48.636;10.152;2023-09-30T05:51:22;15.60;70.40
30304;DHT22;17112;48.636;10.152;2023-09-30T05:53:48;15.60;70.50
30304;DHT22;17112;48.636;10.152;2023-09-30T05:56:14;15.60;70.60
30304;DHT22;17112;48.636;10.152;2023-09-30T05:58:41;15.60;70.80
30304;DHT22;17112;48.636;10.152;2023-09-30T06:01:08;15.60;70.80
30304;DHT22;17112;48.636;10.152;2023-09-30T06:03:36;15.60;71.00
30304;DHT22;17112;48.636;10.152;2023-09-30T06:06:11;15.60;71.20
30304;DHT22;17112;48.636;10.152;2023-09-30T06:08:38;15.70;71.30
30304;DHT22;17112;48.636;10.152;2023-09-30T06:11:04;15.70;70.60
30304;DHT22;17112;48.636;10.152;2023-09-30T06:13:29;15.70;70.50
30304;DHT22;17112;48.636;10.152;2023-09-30T06:15:57;15.70;70.30
30304;DHT22;17112;48.636;10.152;2023-09-30T06:18:23;15.70;70.40
30304;DHT22;17112;48.636;10.152;2023-09-30T06:20:49;15.80;70.60
30304;DHT22;17112;48.636;10.152;2023-09-30T06:23:16;15.80;70.50
30304;DHT22;17112;48.636;10.152;2023-09-30T06:25:42;15.80;70.50
30304;DHT22;17112;48.636;10.152;2023-09-30T06:28:08;15.80;70.70
30304;DHT22;17112;48.636;10.152;2023-09-30T06:30:34;15.90;70.90
30304;DHT22;17112;48.636;10.152;2023-09-30T06:33:01;15.80;70.90
30304;DHT22;17112;48.636;10.152;2023-09-30T06:35:27;15.90;71.30
30304;DHT22;17112;48.636;10.152;2023-09-30T06:37:55;15.90;71.50
30304;DHT22;17112;48.636;10.152;2023-09-30T06:40:21;15.90;71.60
30304;DHT22;17112;48.636;10.152;2023-09-30T06:42:47;16.00;72.50
30304;DHT22;17112;48.636;10.152;2023-09-30T06:45:13;16.00;71.90
30304;DHT22;17112;48.636;10.152;2023-09-30T06:47:40;16.10;71.90
30304;DHT22;17112;48.636;10.152;2023-09-30T06:50:11;16.20;71.90
30304;DHT22;17112;48.636;10.152;2023-09-30T06:52:42;16.30;72.10
30304;DHT22;17112;48.636;10.152;2023-09-30T06:55:10;16.30;71.80
30304;DHT22;17112;48.636;10.152;2023-09-30T06:57:39;16.40;71.60
30304;DHT22;17112;48.636;10.152;2023-09-30T07:00:11;16.50;71.50
30304;DHT22;17112;48.636;10.152;2023-09-30T07:02:37;16.50;71.90
30304;DHT22;17112;48.636;10.152;2023-09-30T07:05:14;16.60;71.60
30304;DHT22;17112;48.636;10.152;2023-09-30T07:07:40;16.60;72.20
30304;DHT22;17112;48.636;10.152;2023-09-30T07:10:09;16.70;71.80
30304;DHT22;17112;48.636;10.152;2023-09-30T07:12:35;16.70;71.90
30304;DHT22;17112;48.636;10.152;2023-09-30T07:15:05;16.80;72.00
30304;DHT22;17112;48.636;10.152;2023-09-30T07:17:31;16.90;72.10
30304;DHT22;17112;48.636;10.152;2023-09-30T07:19:57;17.00;71.80
30304;DHT22;17112;48.636;10.152;2023-09-30T07:22:23;17.10;71.80
30304;DHT22;17112;48.636;10.152;2023-09-30T07:24:48;17.20;71.60
30304;DHT22;17112;48.636;10.152;2023-09-30T07:27:14;17.30;71.50
30304;DHT22;17112;48.636;10.152;2023-09-30T07:29:40;17.40;71.30
30304;DHT22;17112;48.636;10.152;2023-09-30T07:32:07;17.50;71.20
30304;DHT22;17112;48.636;10.152;2023-09-30T07:34:33;17.70;71.30
30304;DHT22;17112;48.636;10.152;2023-09-30T07:36:58;17.70;71.00
30304;DHT22;17112;48.636;10.152;2023-09-30T07:39:24;17.90;70.90
30304;DHT22;17112;48.636;10.152;2023-09-30T07:41:50;18.00;70.80
30304;DHT22;17112;48.636;10.152;2023-09-30T07:44:15;18.10;70.70
30304;DHT22;17112;48.636;10.152;2023-09-30T07:46:41;18.20;70.20
30304;DHT22;17112;48.636;10.152;2023-09-30T07:49:09;18.30;70.00
30304;DHT22;17112;48.636;10.152;2023-09-30T07:51:36;18.50;69.90
30304;DHT22;17112;48.636;10.152;2023-09-30T07:54:03;18.60;69.70
30304;DHT22;17112;48.636;10.152;2023-09-30T07:56:29;18.70;69.40
30304;DHT22;17112;48.636;10.152;2023-09-30T07:58:55;18.90;68.80
30304;DHT22;17112;48.636;10.152;2023-09-30T08:01:20;19.00;68.50
30304;DHT22;17112;48.636;10.152;2023-09-30T08:03:47;19.20;68.40
30304;DHT22;17112;48.636;10.152;2023-09-30T08:06:12;19.20;68.10
30304;DHT22;17112;48.636;10.152;2023-09-30T08:08:38;19.30;67.90
30304;DHT22;17112;48.636;10.152;2023-09-30T08:11:05;19.50;67.60
30304;DHT22;17112;48.636;10.152;2023-09-30T08:13:32;19.60;67.30
30304;DHT22;17112;48.636;10.152;2023-09-30T08:15:59;19.60;67.00
30304;DHT22;17112;48.636;10.152;2023-09-30T08:18:25;19.70;66.80
30304;DHT22;17112;48.636;10.152;2023-09-30T08:20:50;19.80;66.40
30304;DHT22;17112;48.636;10.152;2023-09-30T08:23:16;19.90;66.20
30304;DHT22;17112;48.636;10.152;2023-09-30T08:25:42;19.90;66.00
30304;DHT22;17112;48.636;10.152;2023-09-30T08:28:08;20.00;65.70
30304;DHT22;17112;48.636;10.152;2023-09-30T08:30:37;20.10;65.60
30304;DHT22;17112;48.636;10.152;2023-09-30T08:33:04;20.20;65.20
30304;DHT22;17112;48.636;10.152;2023-09-30T08:35:30;20.30;64.70
30304;DHT22;17112;48.636;10.152;2023-09-30T08:37:57;20.40;63.90
30304;DHT22;17112;48.636;10.152;2023-09-30T08:40:23;20.60;63.10
30304;DHT22;17112;48.636;10.152;2023-09-30T08:42:51;20.60;62.80
30304;DHT22;17112;48.636;10.152;2023-09-30T08:45:18;20.70;62.40
30304;DHT22;17112;48.636;10.152;2023-09-30T08:47:44;20.80;62.00
30304;DHT22;17112;48.636;10.152;2023-09-30T08:50:10;20.90;61.40
30304;DHT22;17112;48.636;10.152;2023-09-30T08:52:38;21.00;61.30
30304;DHT22;17112;48.636;10.152;2023-09-30T08:55:10;21.10;60.80
30304;DHT22;17112;48.636;10.152;2023-09-30T08:57:44;21.20;60.50
30304;DHT22;17112;48.636;10.152;2023-09-30T09:00:12;21.30;59.70
30304;DHT22;17112;48.636;10.152;2023-09-30T09:02:39;21.40;60.10
30304;DHT22;17112;48.636;10.152;2023-09-30T09:05:05;21.60;60.00
30304;DHT22;17112;48.636;10.152;2023-09-30T09:07:32;21.70;59.70
30304;DHT22;17112;48.636;10.152;2023-09-30T09:10:05;21.90;59.10
30304;DHT22;17112;48.636;10.152;2023-09-30T09:12:33;22.10;57.90
30304;DHT22;17112;48.636;10.152;2023-09-30T09:14:59;22.10;57.30
30304;DHT22;17112;48.636;10.152;2023-09-30T09:17:40;22.20;56.60
30304;DHT22;17112;48.636;10.152;2023-09-30T09:20:07;22.20;56.40
30304;DHT22;17112;48.636;10.152;2023-09-30T09:22:39;22.20;56.90
30304;DHT22;17112;48.636;10.152;2023-09-30T09:25:05;22.20;56.40
30304;DHT22;17112;48.636;10.152;2023-09-30T09:27:34;22.20;56.80
30304;DHT22;17112;48.636;10.152;2023-09-30T09:30:20;22.30;56.30
30304;DHT22;17112;48.636;10.152;2023-09-30T09:33:05;22.30;54.80
30304;DHT22;17112;48.636;10.152;2023-09-30T09:35:34;22.20;54.60
30304;DHT22;17112;48.636;10.152;2023-09-30T09:38:05;22.20;54.80
30304;DHT22;17112;48.636;10.152;2023-09-30T09:40:35;22.10;55.10
30304;DHT22;17112;48.636;10.152;2023-09-30T09:43:02;22.10;55.00
30304;DHT22;17112;48.636;10.152;2023-09-30T09:45:36;22.20;55.30
30304;DHT22;17112;48.636;10.152;2023-09-30T09:48:04;22.20;55.10
30304;DHT22;17112;48.636;10.152;2023-09-30T09:50:30;22.40;55.40
30304;DHT22;17112;48.636;10.152;2023-09-30T09:52:59;22.50;55.40
30304;DHT22;17112;48.636;10.152;2023-09-30T09:55:26;22.60;55.30
30304;DHT22;17112;48.636;10.152;2023-09-30T09:57:53;22.80;55.30
30304;DHT22;17112;48.636;10.152;2023-09-30T10:00:22;22.90;55.90
30304;DHT22;17112;48.636;10.152;2023-09-30T10:02:49;23.10;55.20
30304;DHT22;17112;48.636;10.152;2023-09-30T10:05:16;23.20;54.00
30304;DHT22;17112;48.636;10.152;2023-09-30T10:07:57;23.40;54.10
30304;DHT22;17112;48.636;10.152;2023-09-30T10:10:23;23.50;52.80
30304;DHT22;17112;48.636;10.152;2023-09-30T10:12:50;23.60;52.50
30304;DHT22;17112;48.636;10.152;2023-09-30T10:18:01;23.70;50.60
30304;DHT22;17112;48.636;10.152;2023-09-30T10:20:36;23.70;50.70
30304;DHT22;17112;48.636;10.152;2023-09-30T10:25:48;24.00;49.70
30304;DHT22;17112;48.636;10.152;2023-09-30T10:28:35;24.10;51.20
30304;DHT22;17112;48.636;10.152;2023-09-30T10:36:37;24.50;49.30
30304;DHT22;17112;48.636;10.152;2023-09-30T10:39:04;24.50;48.30
30304;DHT22;17112;48.636;10.152;2023-09-30T10:49:54;24.40;47.90
30304;DHT22;17112;48.636;10.152;2023-09-30T10:52:23;24.30;47.80
30304;DHT22;17112;48.636;10.152;2023-09-30T10:54:50;24.20;48.20
30304;DHT22;17112;48.636;10.152;2023-09-30T10:57:26;24.10;48.80
30304;DHT22;17112;48.636;10.152;2023-09-30T11:00:11;24.10;47.80
30304;DHT22;17112;48.636;10.152;2023-09-30T11:02:50;24.10;47.00
30304;DHT22;17112;48.636;10.152;2023-09-30T11:05:18;24.10;46.70
30304;DHT22;17112;48.636;10.152;2023-09-30T11:07:48;24.20;48.50
30304;DHT22;17112;48.636;10.152;2023-09-30T11:10:17;24.10;47.80
30304;DHT22;17112;48.636;10.152;2023-09-30T11:12:56;24.10;47.20
30304;DHT22;17112;48.636;10.152;2023-09-30T11:15:22;23.90;46.40
30304;DHT22;17112;48.636;10.152;2023-09-30T11:17:48;23.90;47.70
30304;DHT22;17112;48.636;10.152;2023-09-30T11:20:16;23.90;48.00
30304;DHT22;17112;48.636;10.152;2023-09-30T11:22:44;24.00;48.30
30304;DHT22;17112;48.636;10.152;2023-09-30T11:25:17;24.10;48.50
30304;DHT22;17112;48.636;10.152;2023-09-30T11:27:43;24.30;48.30
30304;DHT22;17112;48.636;10.152;2023-09-30T11:30:11;24.40;48.10
30304;DHT22;17112;48.636;10.152;2023-09-30T11:32:37;24.50;46.80
30304;DHT22;17112;48.636;10.152;2023-09-30T11:35:09;24.50;47.00
30304;DHT22;17112;48.636;10.152;2023-09-30T11:37:35;24.30;46.10
30304;DHT22;17112;48.636;10.152;2023-09-30T11:40:12;24.20;46.80
30304;DHT22;17112;48.636;10.152;2023-09-30T11:42:39;24.10;46.70
30304;DHT22;17112;48.636;10.152;2023-09-30T11:45:21;24.00;47.40
30304;DHT22;17112;48.636;10.152;2023-09-30T11:47:47;23.90;47.30
30304;DHT22;17112;48.636;10.152;2023-09-30T11:50:14;23.80;48.00
30304;DHT22;17112;48.636;10.152;2023-09-30T11:52:44;23.80;48.20
30304;DHT22;17112;48.636;10.152;2023-09-30T11:55:12;23.80;47.90
30304;DHT22;17112;48.636;10.152;2023-09-30T11:57:38;23.70;47.80
30304;DHT22;17112;48.636;10.152;2023-09-30T12:00:04;23.70;48.20
30304;DHT22;17112;48.636;10.152;2023-09-30T12:02:38;23.70;49.10
30304;DHT22;17112;48.636;10.152;2023-09-30T12:05:06;23.80;48.70
30304;DHT22;17112;48.636;10.152;2023-09-30T12:07:37;24.00;49.00
30304;DHT22;17112;48.636;10.152;2023-09-30T12:10:04;24.20;48.50
30304;DHT22;17112;48.636;10.152;2023-09-30T12:12:29;24.40;48.30
30304;DHT22;17112;48.636;10.152;2023-09-30T12:14:55;24.50;48.10
30304;DHT22;17112;48.636;10.152;2023-09-30T12:17:21;24.70;47.30
30304;DHT22;17112;48.636;10.152;2023-09-30T12:19:47;24.90;46.80
30304;DHT22;17112;48.636;10.152;2023-09-30T12:22:13;25.00;46.40
30304;DHT22;17112;48.636;10.152;2023-09-30T12:24:39;25.10;46.20
30304;DHT22;17112;48.636;10.152;2023-09-30T12:27:06;25.00;45.70
30304;DHT22;17112;48.636;10.152;2023-09-30T12:29:32;25.00;45.70
30304;DHT22;17112;48.636;10.152;2023-09-30T12:31:57;24.90;45.60
30304;DHT22;17112;48.636;10.152;2023-09-30T12:34:23;24.80;46.10
30304;DHT22;17112;48.636;10.152;2023-09-30T12:36:51;24.70;46.10
30304;DHT22;17112;48.636;10.152;2023-09-30T12:39:17;24.60;45.80
30304;DHT22;17112;48.636;10.152;2023-09-30T12:41:49;24.40;46.10
30304;DHT22;17112;48.636;10.152;2023-09-30T12:44:14;24.30;46.40
30304;DHT22;17112;48.636;10.152;2023-09-30T12:46:40;24.20;46.40
30304;DHT22;17112;48.636;10.152;2023-09-30T12:49:06;24.20;46.30
30304;DHT22;17112;48.636;10.152;2023-09-30T12:51:33;24.20;46.10
30304;DHT22;17112;48.636;10.152;2023-09-30T12:54:00;24.20;46.60
30304;DHT22;17112;48.636;10.152;2023-09-30T12:56:26;24.20;46.40
30304;DHT22;17112;48.636;10.152;2023-09-30T12:58:51;24.30;46.10
30304;DHT22;17112;48.636;10.152;2023-09-30T13:01:17;24.40;46.50
30304;DHT22;17112;48.636;10.152;2023-09-30T13:03:44;24.50;46.40
30304;DHT22;17112;48.636;10.152;2023-09-30T13:06:10;24.60;46.50
30304;DHT22;17112;48.636;10.152;2023-09-30T13:08:36;24.70;46.50
30304;DHT22;17112;48.636;10.152;2023-09-30T13:11:02;24.80;46.00
30304;DHT22;17112;48.636;10.152;2023-09-30T13:13:32;24.90;45.10
30304;DHT22;17112;48.636;10.152;2023-09-30T13:16:03;24.90;44.50
30304;DHT22;17112;48.636;10.152;2023-09-30T13:18:31;24.90;44.20
30304;DHT22;17112;48.636;10.152;2023-09-30T13:20:58;24.80;44.30
30304;DHT22;17112;48.636;10.152;2023-09-30T13:23:23;24.80;43.90
30304;DHT22;17112;48.636;10.152;2023-09-30T13:25:49;24.70;43.60
30304;DHT22;17112;48.636;10.152;2023-09-30T13:28:15;24.70;43.70
30304;DHT22;17112;48.636;10.152;2023-09-30T13:30:42;24.50;43.90
30304;DHT22;17112;48.636;10.152;2023-09-30T13:33:07;24.50;44.00
30304;DHT22;17112;48.636;10.152;2023-09-30T13:35:33;24.50;43.40
30304;DHT22;17112;48.636;10.152;2023-09-30T13:38:01;24.50;43.90
30304;DHT22;17112;48.636;10.152;2023-09-30T13:40:27;24.50;44.30
30304;DHT22;17112;48.636;10.152;2023-09-30T13:42:53;24.50;44.60
30304;DHT22;17112;48.636;10.152;2023-09-30T13:45:18;24.70;44.10
30304;DHT22;17112;48.636;10.152;2023-09-30T13:47:44;24.80;43.20
30304;DHT22;17112;48.636;10.152;2023-09-30T13:50:10;24.80;42.80
30304;DHT22;17112;48.636;10.152;2023-09-30T13:52:36;24.80;42.50
30304;DHT22;17112;48.636;10.152;2023-09-30T13:55:02;24.80;42.70
30304;DHT22;17112;48.636;10.152;2023-09-30T13:57:28;24.70;43.00
30304;DHT22;17112;48.636;10.152;2023-09-30T13:59:55;24.70;43.80
30304;DHT22;17112;48.636;10.152;2023-09-30T14:02:21;24.70;44.30
30304;DHT22;17112;48.636;10.152;2023-09-30T14:04:48;24.80;44.50
30304;DHT22;17112;48.636;10.152;2023-09-30T14:07:14;25.00;44.60
30304;DHT22;17112;48.636;10.152;2023-09-30T14:09:39;25.10;44.20
30304;DHT22;17112;48.636;10.152;2023-09-30T14:12:05;25.30;43.50
30304;DHT22;17112;48.636;10.152;2023-09-30T14:14:32;25.30;43.30
30304;DHT22;17112;48.636;10.152;2023-09-30T14:16:58;25.30;43.30
30304;DHT22;17112;48.636;10.152;2023-09-30T14:19:24;25.20;43.20
30304;DHT22;17112;48.636;10.152;2023-09-30T14:21:50;25.20;43.50
30304;DHT22;17112;48.636;10.152;2023-09-30T14:24:15;25.10;43.40
30304;DHT22;17112;48.636;10.152;2023-09-30T14:26:41;25.10;43.70
30304;DHT22;17112;48.636;10.152;2023-09-30T14:29:07;25.20;43.60
30304;DHT22;17112;48.636;10.152;2023-09-30T14:31:33;25.20;43.80
30304;DHT22;17112;48.636;10.152;2023-09-30T14:33:58;25.30;43.50
30304;DHT22;17112;48.636;10.152;2023-09-30T14:36:24;25.40;43.20
30304;DHT22;17112;48.636;10.152;2023-09-30T14:38:50;25.40;42.90
30304;DHT22;17112;48.636;10.152;2023-09-30T14:41:15;25.50;42.80
30304;DHT22;17112;48.636;10.152;2023-09-30T14:43:41;25.40;42.90
30304;DHT22;17112;48.636;10.152;2023-09-30T14:46:07;25.50;42.90
30304;DHT22;17112;48.636;10.152;2023-09-30T14:48:36;25.50;42.90
30304;DHT22;17112;48.636;10.152;2023-09-30T14:51:02;25.50;42.50
30304;DHT22;17112;48.636;10.152;2023-09-30T14:53:31;25.50;42.20
30304;DHT22;17112;48.636;10.152;2023-09-30T14:55:57;25.40;42.20
30304;DHT22;17112;48.636;10.152;2023-09-30T14:58:22;25.40;42.20
30304;DHT22;17112;48.636;10.152;2023-09-30T15:00:48;25.30;41.90
30304;DHT22;17112;48.636;10.152;2023-09-30T15:03:13;25.20;42.50
30304;DHT22;17112;48.636;10.152;2023-09-30T15:05:39;25.10;41.90
30304;DHT22;17112;48.636;10.152;2023-09-30T15:08:05;25.00;42.00
30304;DHT22;17112;48.636;10.152;2023-09-30T15:10:34;24.80;42.10
30304;DHT22;17112;48.636;10.152;2023-09-30T15:13:01;24.70;41.90
30304;DHT22;17112;48.636;10.152;2023-09-30T15:15:26;24.50;42.40
30304;DHT22;17112;48.636;10.152;2023-09-30T15:17:52;24.40;43.00
30304;DHT22;17112;48.636;10.152;2023-09-30T15:20:18;24.30;42.90
30304;DHT22;17112;48.636;10.152;2023-09-30T15:22:44;24.20;43.30
30304;DHT22;17112;48.636;10.152;2023-09-30T15:25:10;24.10;43.50
30304;DHT22;17112;48.636;10.152;2023-09-30T15:27:36;24.10;43.80
30304;DHT22;17112;48.636;10.152;2023-09-30T15:30:02;24.10;43.80
30304;DHT22;17112;48.636;10.152;2023-09-30T15:32:28;24.00;43.90
30304;DHT22;17112;48.636;10.152;2023-09-30T15:34:54;24.00;43.80